Aérodrome :
LOGIN :

S'inscrire | Disclaimer

   EN    FR    IT 

 










Légende :    VFR   VFR Marginal   IFR   IFR Intensif   IFR Très Intensif
Visi : 
Plafond : 
>= 8 km
>= 3000ft
5 à 8 km
1000 à 3000 ft
1500m à 5 km
500 à 1000 ft
800 à 1500m
200 à 500 ft
< 800m
< 200 ft
Symboles :   Orages  Brouillard  Fortes neiges  Fortes précipitations  Vent > 20 kt
SIGMETs :   Divers  Orages  Givrage  Turbulence  Onde Orograph.  Cendres Volcan.







- Altitude de l'aérodrome : 30 ft
- Code IATA : CFN


EIDL - Donegal

DERNIER METAR :
  • 200830Z 19004KT 150V230 9999 OVC047 10/06 Q1002

METARs EXPIRÉS :
  • 200800Z 32007KT 9999 BKN048 11/05 Q1001
  • 200730Z 31008KT 9999 FEW028 11/05 Q1001
  • 200700Z 33008KT 9999 BKN048 11/05 Q1001

TAF TAF EIDL
Valide du 20 à 09h jusqu'au 20 à 18h UTC


200800Z 2009/2018 34006KT 9999 BKN035
BECMG 2009/2012 13010KT
BECMG 2012/2015 14015KT
BECMG 2015/2018 14020G30KT
TEMPO 2016/2018 14022G35KT 5000 -RADZ BKN012 SCT020CB
Pas de NOTAMs connus pour ce terrain.



MET'MAP, la Météo Aéronautique d'un coup d'oeil ! - Copyright ORBIFLY Décembre 2007 - Disclaimer

ORBIFLY MET'MAP TEAM :

Programmation & Développement : Alexandra Zaïnal
Conception & Développement : Baudouin d'Aumeries
Co-Programmation & Développement : Marc-Olivier Méhu
Soutien technique & logistique : Manuel Goepfert

Contact : metmap@orbifly.com




SOURCES & CREDITS :

   NOAA